ROPSAA Qualifier | Zone4.ca

ROPSAA Qualifier

Date: Feb 14, 2017
Unofficial  Results
Location: Highlands Nordic
Host Club: Humberview SS

Officials
Convenor  Sian Leyshon-Doughty 
Chief of Competition:  Richard Lemoine 
Race Secretary  Debra Friendly 
First Start Time  10:30 a.m. 
Obs. Time:
Wind Vel:  10km/hr Wind Dir:
Air Temp: -2 Snow Temp:
Weather: partly cloudy Snow Cond: fresh grm

Ex Girls 2 km. Free    
PL Bib Name School RealTime Time Diff
1 6 KATHRYN MARTIN HUMBERVIEW 0:08:17.76 0:08:17.76  
2 3 Hannah Longpre Mayfield 0:08:49.36 0:08:49.36 +31.60
3 10 Emma  Burrows Lorne Park SS 0:09:10.59 0:09:10.59 +52.83
4 5 Sarah Hynes Clarkson Secondary S 0:10:09.25 0:10:09.25 +1:51.49
5 7 Siane Sadhra Glenforest Secondary 0:10:28.33 0:10:28.33 +2:10.57
6 2 Annie Zou Glenforest Secondary 0:10:44.83 0:10:44.83 +2:27.07
7 9 Sarah Piacentino Piacentino Lorne Park SS 0:10:50.52 0:10:50.52 +2:32.76
8 4 Sarah Opersko Clarkson Secondary S 0:15:04.23 0:15:04.23 +6:46.47

Ex Boys 2 km. Free    
PL Bib Name School RealTime Time Diff
1 11 Abdul Gangardiwala Glenforest Secondary 0:12:57.25 0:12:57.25  

PN Standing 2 km. Free    
PL Bib Name School RealTime Time Diff
1 15 Rory McDonald Mayfield 0:09:07.14 0:09:07.14  

Jr Girls 4.6 km. Free    
PL Bib Name School RealTime Time Diff
1 48 JILLIAN MCDERMOTT HUMBERVIEW 0:14:28.10 0:14:28.10  
2 47 Julia Umereanu Mayfield 0:14:59.99 0:14:59.99 +31.89
3 45 OLIVIA CADIEUX HUMBERVIEW 0:15:49.47 0:15:49.47 +1:21.37
4 46 Emma Wilson Mayfield 0:16:06.58 0:16:06.58 +1:38.48
5 43 Taylor Rasmussan Mayfield 0:16:13.52 0:16:13.52 +1:45.42
6 28 ADDY PROULX HUMBERVIEW 0:16:19.55 0:16:19.55 +1:51.45
7 21 MEGAN MCKENZIE HUMBERVIEW 0:17:02.79 0:17:02.79 +2:34.69
8 26 Charlie Stevenson Clarkson Secondary S 0:17:26.07 0:17:26.07 +2:57.97
9 37 LEXY MAURICE HUMBERVIEW 0:17:26.86 0:17:26.86 +2:58.76
10 42 Ashely Skinkle Mayfield 0:17:34.98 0:17:34.98 +3:06.88
11 41 Kady Wellman Mayfield 0:18:56.87 0:18:56.87 +4:28.77
12 38 Anikah Kapur Glenforest Secondary 0:21:20.85 0:21:20.85 +6:52.75
13 27 ABBY MATHEWS HUMBERVIEW 0:21:41.71 0:21:41.71 +7:13.61
14 29 Sonja Rankin Lorne Park SS 0:21:45.51 0:21:45.51 +7:17.41
15 23 Bridget Doyle Lorne Park SS 0:23:09.50 0:23:09.50 +8:41.40
16 39 Madelynn Lett Lorne Park SS 0:25:17.31 0:25:17.31 +10:49.21
17 31 Katie Burt Lorne Park SS 0:26:28.91 0:26:28.91 +12:00.81

Jr Boys 5.7 km. Free    
PL Bib Name School RealTime Time Diff
1 63 Tyler Downey Mayfield 0:19:40.63 0:19:40.63  
2 61 William Wootton Mayfield 0:19:46.51 0:19:46.51 +5.88
3 62 Matt Shaw Mayfield 0:20:21.06 0:20:21.06 +40.43
4 58 Justin Vanstone Mayfield 0:21:45.13 0:21:45.13 +2:04.50
5 59 Tyler Mihkelson Mayfield 0:23:41.71 0:23:41.71 +4:01.08
6 57 Andrew Batek Lorne Park SS 0:24:52.55 0:24:52.55 +5:11.92
7 54 Ivan Yavenko Lorne Park SS 0:25:57.59 0:25:57.59 +6:16.96
8 56 Jackson Wood Mayfield 0:27:20.00 0:27:20.00 +7:39.37
9 55 Aidan Olson Lorne Park SS 0:27:33.54 0:27:33.54 +7:52.91
10 52 Andrew Guevara Perez Glenforest Secondary 0:30:15.30 0:30:15.30 +10:34.67
11 51 Zander Castro Wiese Lorne Park SS 0:31:37.07 0:31:37.07 +11:56.44
12 53 Bill Li Glenforest Secondary 0:35:03.26 0:35:03.26 +15:22.63

Sr Girls 5.7 km. Free    
PL Bib Name School RealTime Time Diff
1 91 Emma Grove Mayfield 0:21:28.78 0:21:28.78  
2 86 LIZA KNILL HUMBERVIEW 0:22:12.80 0:22:12.80 +44.02
3 85 ABBIE WALKER HUMBERVIEW 0:23:17.98 0:23:17.98 +1:49.20
4 89 Alexandra Hudson Clarkson Secondary S 0:24:12.55 0:24:12.55 +2:43.77
5 77 MIA CADIEUX HUMBERVIEW 0:24:42.18 0:24:42.18 +3:13.40
6 88 Katya Dondi Mayfield 0:25:13.76 0:25:13.76 +3:44.98
7 76 JESSICA PATTERSON HUMBERVIEW 0:25:26.02 0:25:26.02 +3:57.24
8 87 Sloan Westlake Mayfield 0:25:53.24 0:25:53.24 +4:24.46
9 75 Sandra Bojic Clarkson Secondary S 0:27:28.35 0:27:28.35 +5:59.57
10 73 JUSTINA SREBRNJAK HUMBERVIEW 0:27:28.37 0:27:28.37 +5:59.59
11 80 Karina McDonald Mayfield 0:29:41.43 0:29:41.43 +8:12.65
12 79 Simran Bal Glenforest Secondary 0:30:45.26 0:30:45.26 +9:16.48
13 78 Allissa Law Glenforest Secondary 0:31:15.49 0:31:15.49 +9:46.71
14 74 Tina Han Glenforest Secondary 0:31:19.13 0:31:19.13 +9:50.35
15 82 Alex Azzaopardi Mayfield 0:33:24.34 0:33:24.34 +11:55.56
16 83 Mackenzie Buckland Clarkson Secondary S 0:33:25.21 0:33:25.21 +11:56.43
17 90 Carolyn  Mahr Clarkson Secondary S 0:37:04.11 0:37:04.11 +15:35.33
18 71 Ema Nesic Glenforest Secondary 0:44:38.53 0:44:38.53 +23:09.75
DNF 84 ALI JORDAN HUMBERVIEW *** *** ***

Sr Boys 7.3 km. Free    
PL Bib Name School RealTime Time Diff
1 122 John Milkovich Mayfield 0:21:33.72 0:21:33.72  
2 117 KARSON PROULX HUMBERVIEW 0:22:05.67 0:22:05.67 +31.95
3 121 Daniel Shaw Mayfield 0:22:30.50 0:22:30.50 +56.78
4 120 Michael Wootton Mayfield 0:22:34.23 0:22:34.23 +1:00.51
5 116 DAWSON HEMPHILL HUMBERVIEW 0:23:30.39 0:23:30.39 +1:56.67
6 119 EVAN MCDERMOTT HUMBERVIEW 0:23:45.41 0:23:45.41 +2:11.69
7 118 Josh Mihkelson Mayfield 0:25:18.97 0:25:18.97 +3:45.25
8 110 Brayden Vanstone Mayfield 0:25:49.38 0:25:49.38 +4:15.66
9 106 BLAKE PATTERSON HUMBERVIEW 0:25:51.59 0:25:51.59 +4:17.87
10 113 Telfer Beveridge Mayfield 0:26:07.38 0:26:07.38 +4:33.66
11 105 MATT REYNOLDS HUMBERVIEW 0:26:12.24 0:26:12.24 +4:38.52
12 111 Nicholas Klymciw Mayfield 0:27:23.90 0:27:23.90 +5:50.18
13 101 ANDREW SMISSEN HUMBERVIEW 0:27:48.62 0:27:48.62 +6:14.90
14 109 Dan  Bojic Clarkson Secondary S 0:29:40.29 0:29:40.29 +8:06.57
15 104 Steven Rossi Clarkson Secondary S 0:31:38.36 0:31:38.36 +10:04.64
16 114 Adam Mackenzie Clarkson Secondary S 0:32:52.68 0:32:52.68 +11:18.96
17 115 Duke Bang Clarkson Secondary S 0:33:09.25 0:33:09.25 +11:35.53
18 108 Dawson Ratcliffe Clarkson Secondary S 0:37:25.08 0:37:25.08 +15:51.36
19 103 Yaseen Chirathodi Glenforest Secondary 0:40:08.15 0:40:08.15 +18:34.43

PN Guide 2 km. Free    
PL Bib Name School RealTime Time Diff
DNF 1000 Noah Chalifoux Mayfield *** *** ***


Results are posted through an automated system by licenced clubs. For inquires about result corrections please contact the race organizer.

Copyright 2017 - Zone4 Systems zone4.ca       Privacy Policy     Delivery/Refund Policy     Terms of Service    Contact Zone4